createdAt,value
2018-10-21T00:01:40.079Z,7.70
2018-10-21T00:04:08.990Z,7.70
2018-10-21T00:06:37.996Z,7.60
2018-10-21T00:09:09.301Z,7.60
2018-10-21T00:11:38.283Z,7.50
2018-10-21T00:14:07.275Z,7.50
2018-10-21T00:16:36.186Z,7.40
2018-10-21T00:19:05.390Z,7.40
2018-10-21T00:21:34.351Z,7.30
2018-10-21T00:24:03.353Z,7.20
2018-10-21T00:26:32.302Z,7.20
2018-10-21T00:29:01.259Z,7.20
2018-10-21T00:31:30.194Z,7.10
2018-10-21T00:33:59.095Z,7.00
2018-10-21T00:36:27.988Z,7.00
2018-10-21T00:38:56.941Z,6.90
2018-10-21T00:41:25.853Z,6.90
2018-10-21T00:43:54.732Z,6.80
2018-10-21T00:46:23.663Z,6.70
2018-10-21T00:48:52.594Z,6.70
2018-10-21T00:51:21.492Z,6.60
2018-10-21T00:53:50.479Z,6.50
2018-10-21T00:56:19.379Z,6.40
2018-10-21T00:58:48.247Z,6.30
2018-10-21T01:01:17.179Z,6.30
2018-10-21T01:03:46.121Z,6.20
2018-10-21T01:06:15.487Z,6.10
2018-10-21T01:08:44.388Z,6.00
2018-10-21T01:11:13.316Z,6.00
2018-10-21T01:13:42.236Z,5.90
2018-10-21T01:16:11.721Z,5.90
2018-10-21T01:18:40.662Z,5.80
2018-10-21T01:21:09.660Z,5.70
2018-10-21T01:23:38.612Z,5.60
2018-10-21T01:26:07.611Z,5.60
2018-10-21T01:28:36.539Z,5.50
2018-10-21T01:31:05.660Z,5.50
2018-10-21T01:33:34.634Z,5.50
2018-10-21T01:36:03.578Z,5.50
2018-10-21T01:38:32.511Z,5.50
2018-10-21T01:41:01.925Z,5.50
2018-10-21T01:43:32.218Z,5.40
2018-10-21T01:46:01.981Z,5.40
2018-10-21T01:48:31.989Z,5.40
2018-10-21T01:51:01.271Z,5.30
2018-10-21T01:53:30.153Z,5.20
2018-10-21T01:56:01.884Z,5.20
2018-10-21T01:58:30.828Z,5.10
2018-10-21T02:01:00.042Z,5.10
2018-10-21T02:03:28.963Z,5.10
2018-10-21T02:05:57.921Z,5.10
2018-10-21T02:11:20.073Z,5.00
2018-10-21T02:13:48.965Z,5.00
2018-10-21T02:16:17.867Z,5.00
2018-10-21T02:18:46.786Z,4.90
2018-10-21T02:21:15.780Z,4.90
2018-10-21T02:23:44.696Z,4.80
2018-10-21T02:26:13.605Z,4.80
2018-10-21T02:28:42.562Z,4.70
2018-10-21T02:31:11.486Z,4.70
2018-10-21T02:33:40.649Z,4.70
2018-10-21T02:36:09.381Z,4.70
2018-10-21T02:38:38.280Z,4.70
2018-10-21T02:41:34.573Z,4.70
2018-10-21T02:44:04.381Z,4.70
2018-10-21T02:46:33.655Z,4.60
2018-10-21T02:49:03.442Z,4.60
2018-10-21T02:51:32.389Z,4.50
2018-10-21T02:54:01.393Z,4.50
2018-10-21T02:56:30.392Z,4.50
2018-10-21T02:58:59.364Z,4.40
2018-10-21T03:01:28.296Z,4.40
2018-10-21T03:03:57.234Z,4.30
2018-10-21T03:06:26.241Z,4.30
2018-10-21T03:08:55.267Z,4.20
2018-10-21T03:11:24.265Z,4.10
2018-10-21T03:13:53.170Z,4.10
2018-10-21T03:16:22.257Z,4.10
2018-10-21T03:18:51.232Z,4.10
2018-10-21T03:21:20.334Z,4.00
2018-10-21T03:23:49.137Z,4.00
2018-10-21T03:26:18.037Z,4.00
2018-10-21T03:28:47.022Z,3.90
2018-10-21T03:31:15.960Z,3.80
2018-10-21T03:33:44.956Z,3.80
2018-10-21T03:36:13.802Z,3.70
2018-10-21T03:38:42.802Z,3.70
2018-10-21T03:41:11.716Z,3.60
2018-10-21T03:43:40.912Z,3.60
2018-10-21T03:46:11.404Z,3.60
2018-10-21T03:48:40.367Z,3.60
2018-10-21T03:51:09.245Z,3.50
2018-10-21T03:53:38.171Z,3.40
2018-10-21T03:56:07.157Z,3.40
2018-10-21T03:58:36.112Z,3.30
2018-10-21T04:01:05.229Z,3.30
2018-10-21T04:03:34.263Z,3.30
2018-10-21T04:06:03.293Z,3.30
2018-10-21T04:08:32.256Z,3.20
2018-10-21T04:11:01.204Z,3.20
2018-10-21T04:13:30.233Z,3.20
2018-10-21T04:15:59.190Z,3.10
2018-10-21T04:18:28.137Z,3.10
2018-10-21T04:20:57.050Z,3.10
2018-10-21T04:23:25.988Z,3.10
2018-10-21T04:25:54.953Z,3.10
2018-10-21T04:28:23.928Z,3.10
2018-10-21T04:30:52.923Z,3.00
2018-10-21T04:33:52.049Z,3.00
2018-10-21T04:36:22.742Z,3.00
2018-10-21T04:40:02.790Z,3.10
2018-10-21T04:42:31.837Z,3.20
2018-10-21T04:45:01.552Z,3.20
2018-10-21T04:47:30.885Z,3.20
2018-10-21T04:50:00.435Z,3.20
2018-10-21T04:52:30.389Z,3.20
2018-10-21T04:55:04.537Z,3.30
2018-10-21T04:57:33.566Z,3.20
2018-10-21T05:00:02.894Z,3.30
2018-10-21T05:02:32.436Z,3.30
2018-10-21T05:05:01.357Z,3.30
2018-10-21T05:07:30.295Z,3.20
2018-10-21T05:09:59.275Z,3.20
2018-10-21T05:12:28.218Z,3.10
2018-10-21T05:14:57.167Z,3.10
2018-10-21T05:17:26.166Z,3.10
2018-10-21T05:19:55.148Z,3.00
2018-10-21T05:22:24.065Z,2.90
2018-10-21T05:24:53.393Z,2.90
2018-10-21T05:27:22.288Z,2.90
2018-10-21T05:29:51.175Z,2.90
2018-10-21T05:32:20.117Z,2.90
2018-10-21T05:34:49.021Z,2.90
2018-10-21T05:37:17.994Z,2.90
2018-10-21T05:39:46.891Z,2.90
2018-10-21T05:42:15.836Z,3.00
2018-10-21T05:44:44.824Z,3.10
2018-10-21T05:47:13.737Z,3.10
2018-10-21T05:49:42.669Z,3.00
2018-10-21T05:52:11.649Z,3.00
2018-10-21T05:54:41.373Z,3.00
2018-10-21T05:57:10.380Z,3.10
2018-10-21T05:59:39.401Z,3.10
2018-10-21T06:02:08.307Z,3.10
2018-10-21T06:04:37.350Z,3.10
2018-10-21T06:07:06.410Z,3.10
2018-10-21T06:09:35.319Z,3.20
2018-10-21T06:12:04.266Z,3.20
2018-10-21T06:14:33.196Z,3.20
2018-10-21T06:17:06.562Z,3.30
2018-10-21T06:19:40.715Z,3.30
2018-10-21T06:22:09.689Z,3.30
2018-10-21T06:24:38.679Z,3.40
2018-10-21T06:27:07.577Z,3.40
2018-10-21T06:29:36.519Z,3.50
2018-10-21T06:32:05.508Z,3.50
2018-10-21T06:34:34.475Z,3.60
2018-10-21T06:37:03.447Z,3.70
2018-10-21T06:39:32.340Z,3.90
2018-10-21T06:42:01.293Z,4.00
2018-10-21T06:44:30.205Z,4.10
2018-10-21T06:46:59.163Z,4.20
2018-10-21T06:49:28.113Z,4.30
2018-10-21T06:51:57.042Z,4.40
2018-10-21T06:54:25.977Z,4.50
2018-10-21T06:56:54.930Z,4.60
2018-10-21T06:59:23.823Z,4.70
2018-10-21T07:01:53.470Z,4.80
2018-10-21T07:04:22.418Z,4.90
2018-10-21T07:06:51.303Z,5.00
2018-10-21T07:09:20.188Z,5.20
2018-10-21T07:11:49.140Z,5.40
2018-10-21T07:14:18.184Z,5.60
2018-10-21T07:16:47.297Z,5.80
2018-10-21T07:19:16.155Z,5.90
2018-10-21T07:21:45.190Z,5.90
2018-10-21T07:24:14.161Z,6.00
2018-10-21T07:26:43.126Z,6.10
2018-10-21T07:29:12.189Z,6.20
2018-10-21T07:31:41.193Z,6.40
2018-10-21T07:34:10.209Z,6.50
2018-10-21T07:36:39.103Z,6.50
2018-10-21T07:39:09.739Z,6.50
2018-10-21T07:41:38.749Z,6.50
2018-10-21T07:44:07.768Z,6.50
2018-10-21T07:46:36.722Z,6.50
2018-10-21T07:49:05.653Z,6.60
2018-10-21T07:51:34.624Z,6.70
2018-10-21T07:54:03.533Z,6.80
2018-10-21T07:56:32.496Z,6.90
2018-10-21T07:59:01.952Z,6.90
2018-10-21T08:01:31.041Z,7.00
2018-10-21T08:03:59.965Z,7.10
2018-10-21T08:06:40.032Z,7.20
2018-10-21T08:09:10.600Z,7.30
2018-10-21T08:11:39.507Z,7.30
2018-10-21T08:14:08.429Z,7.40
2018-10-21T08:16:39.742Z,7.40
2018-10-21T08:19:08.638Z,7.60
2018-10-21T08:21:38.228Z,7.60
2018-10-21T08:24:07.761Z,7.80
2018-10-21T08:26:36.770Z,7.90
2018-10-21T08:29:06.021Z,8.00
2018-10-21T08:31:35.024Z,8.10
2018-10-21T08:34:04.031Z,8.20
2018-10-21T08:36:33.024Z,8.30
2018-10-21T08:39:01.917Z,8.40
2018-10-21T08:41:31.247Z,8.40
2018-10-21T08:44:00.195Z,8.50
2018-10-21T08:46:29.161Z,8.60
2018-10-21T08:48:58.082Z,8.70
2018-10-21T08:51:27.012Z,8.80
2018-10-21T08:53:56.487Z,8.90
2018-10-21T08:56:25.427Z,9.00
2018-10-21T08:58:54.938Z,9.10
2018-10-21T09:01:23.990Z,9.20
2018-10-21T09:03:52.908Z,9.30
2018-10-21T09:06:21.923Z,9.40
2018-10-21T09:08:50.836Z,9.40
2018-10-21T09:11:19.777Z,9.40
2018-10-21T09:13:49.235Z,9.50
2018-10-21T09:16:18.225Z,9.50
2018-10-21T09:18:47.108Z,9.60
2018-10-21T09:21:17.650Z,9.70
2018-10-21T09:23:46.602Z,9.70
2018-10-21T09:26:15.479Z,9.80
2018-10-21T09:28:44.913Z,9.90
2018-10-21T09:31:13.956Z,10.00
2018-10-21T09:33:42.725Z,10.10
2018-10-21T09:36:11.709Z,10.10
2018-10-21T09:38:40.593Z,10.20
2018-10-21T09:41:09.496Z,10.20
2018-10-21T09:43:38.424Z,10.30
2018-10-21T09:46:07.343Z,10.40
2018-10-21T09:48:36.251Z,10.50
2018-10-21T09:51:05.293Z,10.40
2018-10-21T09:53:34.152Z,10.40
2018-10-21T09:56:03.036Z,10.40
2018-10-21T09:58:32.012Z,10.50
2018-10-21T10:01:05.989Z,10.60
2018-10-21T10:03:34.935Z,10.60
2018-10-21T10:06:03.812Z,10.70
2018-10-21T10:08:32.710Z,10.70
2018-10-21T10:11:01.688Z,10.80
2018-10-21T10:13:30.547Z,10.90
2018-10-21T10:15:59.452Z,11.00
2018-10-21T10:18:28.322Z,11.10
2018-10-21T10:20:57.211Z,11.10
2018-10-21T10:23:26.109Z,11.20
2018-10-21T10:25:55.024Z,11.20
2018-10-21T10:28:23.931Z,11.30
2018-10-21T10:30:52.771Z,11.50
2018-10-21T10:33:21.641Z,11.50
2018-10-21T10:35:50.539Z,11.50
2018-10-21T10:38:19.418Z,11.60
2018-10-21T10:40:48.263Z,11.60
2018-10-21T10:43:17.262Z,11.70
2018-10-21T10:45:46.108Z,11.80
2018-10-21T10:48:14.967Z,11.90
2018-10-21T10:50:43.898Z,12.00
2018-10-21T10:53:12.856Z,12.00
2018-10-21T10:55:45.563Z,12.10
2018-10-21T10:58:15.538Z,12.10
2018-10-21T11:00:44.586Z,12.20
2018-10-21T11:03:13.596Z,12.30
2018-10-21T11:05:42.510Z,12.30
2018-10-21T11:08:11.493Z,12.40
2018-10-21T11:10:40.416Z,12.40
2018-10-21T11:13:09.454Z,12.30
2018-10-21T11:15:38.397Z,12.20
2018-10-21T11:18:07.306Z,12.30
2018-10-21T11:20:36.198Z,12.50
2018-10-21T11:23:05.113Z,12.70
2018-10-21T11:25:34.035Z,12.80
2018-10-21T11:28:03.167Z,13.00
2018-10-21T11:30:32.080Z,13.10
2018-10-21T11:33:00.928Z,13.30
2018-10-21T11:35:29.872Z,13.50
2018-10-21T11:37:58.773Z,13.70
2018-10-21T11:40:27.698Z,13.90
2018-10-21T11:42:56.563Z,14.10
2018-10-21T11:45:25.512Z,14.20
2018-10-21T11:47:54.845Z,14.20
2018-10-21T11:50:23.801Z,14.10
2018-10-21T11:52:52.696Z,13.90
2018-10-21T11:55:21.631Z,13.60
2018-10-21T11:57:50.571Z,13.40
2018-10-21T12:00:19.513Z,13.20
2018-10-21T12:02:48.601Z,13.10
2018-10-21T12:05:20.309Z,12.90
2018-10-21T12:07:49.205Z,12.60
2018-10-21T12:10:18.185Z,12.50
2018-10-21T12:12:47.132Z,12.50
2018-10-21T12:15:16.009Z,12.40
2018-10-21T12:17:46.555Z,12.40
2018-10-21T12:20:15.440Z,12.40
2018-10-21T12:22:44.395Z,12.50
2018-10-21T12:25:13.522Z,12.40
2018-10-21T12:27:42.393Z,12.40
2018-10-21T12:30:11.426Z,12.50
2018-10-21T12:32:40.431Z,12.50
2018-10-21T12:35:12.360Z,12.40
2018-10-21T12:37:41.683Z,12.40
2018-10-21T12:40:10.877Z,12.40
2018-10-21T12:42:40.304Z,12.30
2018-10-21T12:45:10.991Z,12.20
2018-10-21T12:47:40.061Z,12.10
2018-10-21T12:50:09.199Z,12.10
2018-10-21T12:52:39.031Z,12.00
2018-10-21T12:55:08.885Z,12.00
2018-10-21T12:57:37.895Z,11.90
2018-10-21T13:00:07.993Z,11.80
2018-10-21T13:02:37.087Z,11.70
2018-10-21T13:05:06.952Z,11.70
2018-10-21T13:07:35.904Z,11.70
2018-10-21T13:10:05.172Z,11.70
2018-10-21T13:12:34.080Z,11.80
2018-10-21T13:15:03.045Z,11.90
2018-10-21T13:17:32.048Z,12.10
2018-10-21T13:20:01.127Z,12.20
2018-10-21T13:22:30.286Z,12.40
2018-10-21T13:24:59.219Z,12.50
2018-10-21T13:27:28.206Z,12.60
2018-10-21T13:29:57.107Z,12.60
2018-10-21T13:32:26.049Z,12.60
2018-10-21T13:34:55.088Z,12.60
2018-10-21T13:37:23.971Z,12.60
2018-10-21T13:39:52.903Z,12.70
2018-10-21T13:42:21.913Z,12.70
2018-10-21T13:44:50.820Z,12.70
2018-10-21T13:47:19.763Z,12.60
2018-10-21T13:49:48.723Z,12.60
2018-10-21T13:52:17.831Z,12.60
2018-10-21T13:54:47.753Z,12.50
2018-10-21T13:57:17.352Z,12.50
2018-10-21T13:59:46.952Z,12.40
2018-10-21T14:02:15.907Z,12.20
2018-10-21T14:04:44.880Z,12.10
2018-10-21T14:07:13.956Z,11.90
2018-10-21T14:09:42.991Z,11.80
2018-10-21T14:12:18.364Z,11.70
2018-10-21T14:14:47.352Z,11.50
2018-10-21T14:17:16.244Z,11.30
2018-10-21T14:19:45.245Z,11.10
2018-10-21T14:22:14.423Z,10.90
2018-10-21T14:24:43.320Z,10.80
2018-10-21T14:27:12.276Z,10.60
2018-10-21T14:29:41.196Z,10.50
2018-10-21T14:32:10.109Z,10.40
2018-10-21T14:34:39.148Z,10.20
2018-10-21T14:37:08.077Z,10.10
2018-10-21T14:39:37.015Z,10.00
2018-10-21T14:42:07.977Z,10.00
2018-10-21T14:44:36.861Z,9.80
2018-10-21T14:47:05.913Z,9.80
2018-10-21T14:49:35.000Z,9.70
2018-10-21T14:52:03.887Z,9.60
2018-10-21T14:54:32.931Z,9.50
2018-10-21T14:57:01.875Z,9.40
2018-10-21T14:59:30.838Z,9.30
2018-10-21T15:01:59.999Z,9.20
2018-10-21T15:04:28.927Z,9.10
2018-10-21T15:06:57.840Z,9.00
2018-10-21T15:09:26.811Z,9.00
2018-10-21T15:11:55.770Z,8.90
2018-10-21T15:14:24.798Z,8.80
2018-10-21T15:16:53.903Z,8.70
2018-10-21T15:19:22.884Z,8.60
2018-10-21T15:21:51.817Z,8.50
2018-10-21T15:24:20.767Z,8.40
2018-10-21T15:26:49.713Z,8.40
2018-10-21T15:29:18.620Z,8.40
2018-10-21T15:31:49.517Z,8.40
2018-10-21T15:34:18.778Z,8.40
2018-10-21T15:36:47.991Z,8.50
2018-10-21T15:39:16.960Z,8.50
2018-10-21T15:41:46.015Z,8.50
2018-10-21T15:44:14.911Z,8.50
2018-10-21T15:46:43.800Z,8.50
2018-10-21T15:49:12.736Z,8.50
2018-10-21T15:51:42.785Z,8.50
2018-10-21T15:54:11.767Z,8.50
2018-10-21T15:56:40.795Z,8.50
2018-10-21T15:59:10.619Z,8.50
2018-10-21T16:01:39.547Z,8.40
2018-10-21T16:04:08.762Z,8.30
2018-10-21T16:06:38.701Z,8.20
2018-10-21T16:09:11.171Z,8.10
2018-10-21T16:11:41.561Z,8.00
2018-10-21T16:14:10.568Z,7.80
2018-10-21T16:16:40.318Z,7.70
2018-10-21T16:19:09.339Z,7.60
2018-10-21T16:21:38.264Z,7.40
2018-10-21T16:24:07.295Z,7.30
2018-10-21T16:26:36.274Z,7.10
2018-10-21T16:29:05.326Z,7.00
2018-10-21T16:31:35.097Z,6.90
2018-10-21T16:34:04.207Z,6.70
2018-10-21T16:36:33.167Z,6.60
2018-10-21T16:39:02.246Z,6.60
2018-10-21T16:41:34.231Z,6.50
2018-10-21T16:44:03.257Z,6.40
2018-10-21T16:46:33.115Z,6.30
2018-10-21T16:49:02.064Z,6.20
2018-10-21T16:51:31.605Z,6.20
2018-10-21T16:54:02.163Z,6.10
2018-10-21T16:56:31.204Z,6.00
2018-10-21T16:59:00.441Z,6.00
2018-10-21T17:01:29.404Z,5.90
2018-10-21T17:03:58.485Z,5.80
2018-10-21T17:06:27.617Z,5.70
2018-10-21T17:08:56.546Z,5.70
2018-10-21T17:11:25.489Z,5.60
2018-10-21T17:13:54.414Z,5.50
2018-10-21T17:16:23.372Z,5.50
2018-10-21T17:18:52.318Z,5.50
2018-10-21T17:21:21.275Z,5.40
2018-10-21T17:23:50.213Z,5.40
2018-10-21T17:26:19.140Z,5.30
2018-10-21T17:28:48.077Z,5.30
2018-10-21T17:31:17.123Z,5.20
2018-10-21T17:33:46.057Z,5.10
2018-10-21T17:36:14.978Z,5.10
2018-10-21T17:38:43.889Z,5.00
2018-10-21T17:41:12.875Z,5.00
2018-10-21T17:43:41.804Z,4.90
2018-10-21T17:46:10.827Z,4.90
2018-10-21T17:48:39.707Z,4.80
2018-10-21T17:51:08.577Z,4.80
2018-10-21T17:53:45.469Z,4.80
2018-10-21T17:56:14.375Z,4.70
2018-10-21T17:58:43.287Z,4.70
2018-10-21T18:01:13.333Z,4.70
2018-10-21T18:03:42.383Z,4.60
2018-10-21T18:06:11.327Z,4.60
2018-10-21T18:08:40.275Z,4.50
2018-10-21T18:11:09.266Z,4.50
2018-10-21T18:13:38.227Z,4.40
2018-10-21T18:16:07.152Z,4.40
2018-10-21T18:18:36.196Z,4.30
2018-10-21T18:21:11.683Z,4.30
2018-10-21T18:23:40.609Z,4.30
2018-10-21T18:26:09.594Z,4.30
2018-10-21T18:28:38.564Z,4.20
2018-10-21T18:31:07.567Z,4.10
2018-10-21T18:33:36.510Z,4.10
2018-10-21T18:36:06.132Z,4.10
2018-10-21T18:38:47.589Z,4.10
2018-10-21T18:41:16.907Z,4.10
2018-10-21T18:43:45.794Z,4.00
2018-10-21T18:46:14.845Z,4.00
2018-10-21T18:48:44.193Z,4.00
2018-10-21T18:51:13.084Z,3.90
2018-10-21T18:53:42.035Z,3.90
2018-10-21T18:56:11.038Z,3.80
2018-10-21T18:58:40.076Z,3.80
2018-10-21T19:01:09.149Z,3.80
2018-10-21T19:03:38.052Z,3.80
2018-10-21T19:06:07.004Z,3.80
2018-10-21T19:08:36.021Z,3.80
2018-10-21T19:11:05.076Z,3.80
2018-10-21T19:13:36.313Z,3.80
2018-10-21T19:16:07.905Z,3.80
2018-10-21T19:18:36.824Z,3.80
2018-10-21T19:21:05.896Z,3.80
2018-10-21T19:23:34.800Z,3.70
2018-10-21T19:26:03.708Z,3.70
2018-10-21T19:28:32.639Z,3.70
2018-10-21T19:31:01.676Z,3.60
2018-10-21T19:33:30.646Z,3.60
2018-10-21T19:35:59.630Z,3.60
2018-10-21T19:38:28.622Z,3.60
2018-10-21T19:40:57.535Z,3.60
2018-10-21T19:43:26.485Z,3.50
2018-10-21T19:45:55.576Z,3.50
2018-10-21T19:48:24.485Z,3.50
2018-10-21T19:50:53.411Z,3.50
2018-10-21T19:53:22.460Z,3.50
2018-10-21T19:55:51.360Z,3.40
2018-10-21T19:58:20.382Z,3.40
2018-10-21T20:00:49.401Z,3.30
2018-10-21T20:03:18.328Z,3.30
2018-10-21T20:05:47.302Z,3.30
2018-10-21T20:08:16.397Z,3.30
2018-10-21T20:10:45.316Z,3.40
2018-10-21T20:13:14.293Z,3.40
2018-10-21T20:15:43.315Z,3.40
2018-10-21T20:18:12.281Z,3.40
2018-10-21T20:20:41.208Z,3.40
2018-10-21T20:23:10.218Z,3.40
2018-10-21T20:25:39.117Z,3.40
2018-10-21T20:28:08.156Z,3.40
2018-10-21T20:30:37.121Z,3.40
2018-10-21T20:33:06.163Z,3.50
2018-10-21T20:35:35.076Z,3.50
2018-10-21T20:38:04.012Z,3.50
2018-10-21T20:40:34.120Z,3.60
2018-10-21T20:43:03.073Z,3.60
2018-10-21T20:45:31.972Z,3.70
2018-10-21T20:48:01.065Z,3.80
2018-10-21T20:50:30.008Z,3.80
2018-10-21T20:52:58.907Z,3.90
2018-10-21T20:55:27.901Z,4.00
2018-10-21T20:57:56.851Z,4.00
2018-10-21T21:00:25.774Z,4.10
2018-10-21T21:02:54.776Z,4.20
2018-10-21T21:05:23.652Z,4.20
2018-10-21T21:07:52.563Z,4.30
2018-10-21T21:10:21.513Z,4.30
2018-10-21T21:12:50.405Z,4.40
2018-10-21T21:15:19.348Z,4.40
2018-10-21T21:17:48.243Z,4.40
2018-10-21T21:20:17.178Z,4.40
2018-10-21T21:22:46.107Z,4.40
2018-10-21T21:25:15.035Z,4.40
2018-10-21T21:27:44.041Z,4.50
2018-10-21T21:30:13.011Z,4.40
2018-10-21T21:32:41.860Z,4.40
2018-10-21T21:35:10.760Z,4.40
2018-10-21T21:37:40.163Z,4.30
2018-10-21T21:40:10.162Z,4.30
2018-10-21T21:42:39.792Z,4.20
2018-10-21T21:45:09.399Z,4.20
2018-10-21T21:47:38.420Z,4.20
2018-10-21T21:50:08.015Z,4.20
2018-10-21T21:52:36.997Z,4.30
2018-10-21T21:55:06.522Z,4.30
2018-10-21T21:57:35.452Z,4.40
2018-10-21T22:00:05.036Z,4.40
2018-10-21T22:02:34.195Z,4.50
2018-10-21T22:05:03.182Z,4.60
2018-10-21T22:07:32.151Z,4.60
2018-10-21T22:10:01.115Z,4.60
2018-10-21T22:12:30.025Z,4.60
2018-10-21T22:14:58.899Z,4.60
2018-10-21T22:17:27.829Z,4.70
2018-10-21T22:19:56.752Z,4.70
2018-10-21T22:22:25.635Z,4.80
2018-10-21T22:24:54.551Z,4.80
2018-10-21T22:27:23.498Z,4.80
2018-10-21T22:29:52.406Z,4.90
2018-10-21T22:32:21.316Z,4.90
2018-10-21T22:34:50.203Z,5.00
2018-10-21T22:37:19.068Z,5.00
2018-10-21T22:39:48.300Z,5.00
2018-10-21T22:42:17.273Z,5.10
2018-10-21T22:44:46.127Z,5.10
2018-10-21T22:47:15.024Z,5.20
2018-10-21T22:49:43.887Z,5.30
2018-10-21T22:52:12.897Z,5.40
2018-10-21T22:54:41.749Z,5.50
2018-10-21T22:57:18.734Z,5.50
2018-10-21T22:59:49.123Z,5.60
2018-10-21T23:02:18.019Z,5.70
2018-10-21T23:04:47.348Z,5.70
2018-10-21T23:07:16.224Z,5.80
2018-10-21T23:09:45.132Z,5.80
2018-10-21T23:12:14.134Z,5.80
2018-10-21T23:14:43.027Z,5.80
2018-10-21T23:17:11.995Z,5.80
2018-10-21T23:19:43.835Z,5.90
2018-10-21T23:22:12.837Z,5.90
2018-10-21T23:24:42.167Z,6.00
2018-10-21T23:27:11.874Z,6.10
2018-10-21T23:29:41.387Z,6.20
2018-10-21T23:32:10.252Z,6.20
2018-10-21T23:34:39.195Z,6.30
2018-10-21T23:37:08.075Z,6.40
2018-10-21T23:39:36.926Z,6.50
2018-10-21T23:42:06.196Z,6.50
2018-10-21T23:44:35.112Z,6.50
2018-10-21T23:47:03.997Z,6.60
2018-10-21T23:49:32.888Z,6.60
2018-10-21T23:52:01.847Z,6.60
2018-10-21T23:54:30.732Z,6.70
2018-10-21T23:56:59.610Z,6.70
2018-10-21T23:59:28.511Z,6.70
